Time;durP1;ratioP1;P1;durP2;ratioP2;P2;SDS_P1;SDS_P2;PMS_P1;PMS_P2;Temp;Humidity;BMP_temperature;BMP_pressure;BME280_temperature;BME280_humidity;BME280_pressure;Samples;Min_cycle;Max_cycle;Signal;HPM_P1;HPM_P2
2024/03/27 00:01:35;;;;;;;;;;;9.10;1.00;;;;;;5045865;28;19913;-78
2024/03/27 00:04:12;;;;;;;;;;;9.20;1.00;;;;;;5070812;28;20034;-78
2024/03/27 00:06:59;;;;;;;;;;;9.20;1.00;;;;;;5073342;28;20275;-78
2024/03/27 00:09:36;;;;;;;;;;;9.20;1.00;;;;;;5070718;28;19916;-79
2024/03/27 00:12:17;;;;;;;;;;;9.20;1.00;;;;;;5069939;28;19909;-78
2024/03/27 00:14:43;;;;;;;;;;;9.30;1.00;;;;;;5052339;28;19948;-78
2024/03/27 00:17:12;;;;;;;;;;;9.30;1.00;;;;;;5043617;28;19960;-78
2024/03/27 00:19:37;;;;;;;;;;;9.30;1.00;;;;;;5053073;28;19955;-78
2024/03/27 00:22:05;;;;;;;;;;;9.20;1.00;;;;;;5053148;28;19952;-78
2024/03/27 00:27:34;;;;;;;;;;;9.30;1.00;;;;;;5046216;28;20374;-78
2024/03/27 00:30:00;;;;;;;;;;;9.30;1.00;;;;;;5053072;28;19987;-78
2024/03/27 00:35:47;;;;;;;;;;;9.30;1.00;;;;;;5053040;28;19915;-78
2024/03/27 00:38:17;;;;;;;;;;;9.30;1.00;;;;;;5054207;28;19950;-78
2024/03/27 00:40:43;;;;;;;;;;;9.30;1.00;;;;;;5058213;28;19952;-78
2024/03/27 00:43:24;;;;;;;;;;;9.30;1.00;;;;;;5055245;28;19982;-78
2024/03/27 00:46:06;;;;;;;;;;;9.30;1.00;;;;;;5056132;28;19909;-78
2024/03/27 00:54:37;;;;;;;;;;;9.40;1.00;;;;;;5041930;28;19987;-79
2024/03/27 01:00:06;;;;;;;;;;;9.40;1.00;;;;;;5045735;28;19927;-78
2024/03/27 01:02:36;;;;;;;;;;;9.40;1.00;;;;;;5051339;28;20007;-78
2024/03/27 01:05:18;;;;;;;;;;;9.40;1.00;;;;;;5042795;28;19913;-78
2024/03/27 01:07:48;;;;;;;;;;;9.30;1.00;;;;;;5047276;28;20373;-78
2024/03/27 01:13:23;;;;;;;;;;;9.30;1.00;;;;;;5056486;28;19919;-78
2024/03/27 01:15:49;;;;;;;;;;;9.30;1.00;;;;;;5056958;28;19913;-78
2024/03/27 01:21:36;;;;;;;;;;;9.40;1.00;;;;;;5051103;28;19967;-78
2024/03/27 01:24:18;;;;;;;;;;;9.30;1.00;;;;;;5036964;28;19936;-78
2024/03/27 01:27:00;;;;;;;;;;;9.20;1.00;;;;;;5050353;28;20272;-78
2024/03/27 01:29:25;;;;;;;;;;;9.20;1.00;;;;;;5044988;28;20015;-79
2024/03/27 01:34:54;;;;;;;;;;;9.10;1.00;;;;;;5036202;28;19920;-78
2024/03/27 01:40:30;;;;;;;;;;;8.90;1.00;;;;;;5047832;28;19970;-78
2024/03/27 01:49:02;;;;;;;;;;;8.60;1.00;;;;;;5055628;28;19920;-78
2024/03/27 01:51:36;;;;;;;;;;;8.50;1.00;;;;;;5059686;28;19913;-79
2024/03/27 01:54:29;;;;;;;;;;;8.40;1.00;;;;;;5042551;28;19948;-78
2024/03/27 01:57:11;;;;;;;;;;;8.40;1.00;;;;;;5055905;28;19912;-78
2024/03/27 01:59:37;;;;;;;;;;;8.20;1.00;;;;;;5055829;28;19916;-78
2024/03/27 02:02:03;;;;;;;;;;;8.20;1.00;;;;;;5056077;28;19913;-77
2024/03/27 02:04:59;;;;;;;;;;;8.10;1.00;;;;;;5045266;28;19916;-78
2024/03/27 02:07:53;;;;;;;;;;;8.10;1.00;;;;;;5057648;28;19916;-78
2024/03/27 02:10:36;;;;;;;;;;;8.00;1.00;;;;;;5054421;28;19909;-78
2024/03/27 02:13:29;;;;;;;;;;;8.00;1.00;;;;;;5048708;28;19982;-78
2024/03/27 02:15:58;;;;;;;;;;;8.00;1.00;;;;;;5046183;28;19917;-78
2024/03/27 02:21:42;;;;;;;;;;;8.00;1.00;;;;;;5055202;28;20276;-78
2024/03/27 02:24:10;;;;;;;;;;;8.00;1.00;;;;;;5064210;28;19912;-78
2024/03/27 02:26:37;;;;;;;;;;;7.90;1.00;;;;;;5056938;28;19939;-78
2024/03/27 02:29:11;;;;;;;;;;;7.90;1.00;;;;;;5053634;28;19913;-78
2024/03/27 02:31:37;;;;;;;;;;;7.80;1.00;;;;;;5048683;28;19924;-78
2024/03/27 02:34:03;;;;;;;;;;;7.80;1.00;;;;;;5059736;28;19916;-78
2024/03/27 02:36:29;;;;;;;;;;;7.70;1.00;;;;;;5050298;28;20023;-78
2024/03/27 02:41:57;;;;;;;;;;;7.60;1.00;;;;;;5054633;28;20031;-78
2024/03/27 02:44:23;;;;;;;;;;;7.50;1.00;;;;;;5075220;28;19973;-78
2024/03/27 02:50:06;;;;;;;;;;;7.40;1.00;;;;;;5052910;28;19963;-78
2024/03/27 02:52:53;;;;;;;;;;;7.40;1.00;;;;;;5049959;28;20427;-78
2024/03/27 02:55:35;;;;;;;;;;;;;;;;;;5061589;28;19966;-78
2024/03/27 03:01:36;;;;;;;;;;;7.20;1.00;;;;;;5043366;28;20036;-78
2024/03/27 03:04:23;;;;;;;;;;;7.10;1.00;;;;;;5054542;28;19936;-78
2024/03/27 03:07:23;;;;;;;;;;;7.10;1.00;;;;;;5054525;28;19909;-78
2024/03/27 03:10:17;;;;;;;;;;;7.00;1.00;;;;;;5055841;28;19913;-79
2024/03/27 03:12:54;;;;;;;;;;;6.90;1.00;;;;;;5052420;28;19913;-78
2024/03/27 03:15:24;;;;;;;;;;;6.80;1.00;;;;;;5054475;28;19920;-78
2024/03/27 03:18:06;;;;;;;;;;;6.80;1.00;;;;;;5048809;28;19920;-78
2024/03/27 03:20:36;;;;;;;;;;;6.60;1.00;;;;;;5042998;28;19916;-78
2024/03/27 03:23:30;;;;;;;;;;;6.60;1.00;;;;;;5070186;28;19912;-78
2024/03/27 03:26:17;;;;;;;;;;;6.50;1.00;;;;;;5054491;28;19916;-78
2024/03/27 03:28:43;;;;;;;;;;;6.50;1.00;;;;;;5060891;28;19913;-78
2024/03/27 03:31:42;;;;;;;;;;;6.40;1.00;;;;;;5051586;28;19931;-78
2024/03/27 03:46:20;;;;;;;;;;;;;;;;;;5050030;28;19956;-79
2024/03/27 03:49:00;;;;;;;;;;;6.10;1.00;;;;;;5054735;28;20327;-78
2024/03/27 03:54:42;;;;;;;;;;;6.00;1.00;;;;;;5053444;28;19955;-78
2024/03/27 03:57:17;;;;;;;;;;;6.00;1.00;;;;;;5045417;28;20007;-78
2024/03/27 03:59:54;;;;;;;;;;;6.00;1.00;;;;;;5033470;28;19910;-80
2024/03/27 04:02:36;;;;;;;;;;;6.00;1.00;;;;;;5035524;28;20288;-78
2024/03/27 04:05:30;;;;;;;;;;;5.90;1.00;;;;;;5061571;28;19913;-78
2024/03/27 04:07:56;;;;;;;;;;;5.90;1.00;;;;;;5059610;28;19920;-78
2024/03/27 04:10:56;;;;;;;;;;;6.00;1.00;;;;;;5053217;28;20036;-78
2024/03/27 04:16:47;;;;;;;;;;;6.00;1.00;;;;;;4991601;28;20005;-78
2024/03/27 04:31:36;;;;;;;;;;;5.70;1.00;;;;;;4997565;28;19949;-78
2024/03/27 04:43:12;;;;;;;;;;;5.70;1.00;;;;;;4996794;28;19920;-78
2024/03/27 04:45:38;;;;;;;;;;;5.80;1.00;;;;;;4986745;28;19961;-78
2024/03/27 04:51:36;;;;;;;;;;;5.90;1.00;;;;;;5046268;28;19959;-78
2024/03/27 04:57:04;;;;;;;;;;;5.80;1.00;;;;;;5050665;28;20010;-79
2024/03/27 04:59:36;;;;;;;;;;;5.80;1.00;;;;;;5059750;28;19956;-77
2024/03/27 05:02:12;;;;;;;;;;;5.70;1.00;;;;;;5036844;28;19952;-77
2024/03/27 05:04:49;;;;;;;;;;;5.70;1.00;;;;;;5043538;28;19915;-77
2024/03/27 05:10:17;;;;;;;;;;;5.50;1.00;;;;;;5051973;28;19917;-77
2024/03/27 05:12:48;;;;;;;;;;;5.50;1.00;;;;;;5043286;28;19917;-78
2024/03/27 05:15:18;;;;;;;;;;;5.40;1.00;;;;;;5052797;28;19920;-77
2024/03/27 05:17:48;;;;;;;;;;;5.50;1.00;;;;;;5051378;28;19924;-78
2024/03/27 05:20:18;;;;;;;;;;;5.40;1.00;;;;;;5047470;28;19913;-78
2024/03/27 05:23:00;;;;;;;;;;;5.40;1.00;;;;;;5055935;28;19935;-77
2024/03/27 05:26:03;;;;;;;;;;;5.40;1.00;;;;;;5040530;28;19939;-78
2024/03/27 05:31:51;;;;;;;;;;;5.40;1.00;;;;;;5039307;28;19935;-79
2024/03/27 05:34:30;;;;;;;;;;;5.30;1.00;;;;;;5057092;28;19917;-79
2024/03/27 05:40:13;;;;;;;;;;;5.30;1.00;;;;;;5042430;28;19947;-83
2024/03/27 05:42:48;;;;;;;;;;;5.10;1.00;;;;;;5036337;28;20000;-79
2024/03/27 05:45:14;;;;;;;;;;;5.20;1.00;;;;;;5052473;28;19915;-79
2024/03/27 05:47:48;;;;;;;;;;;5.30;1.00;;;;;;5049123;28;20004;-78
2024/03/27 05:50:18;;;;;;;;;;;5.30;1.00;;;;;;5053855;28;20324;-81
2024/03/27 05:52:48;;;;;;;;;;;5.30;1.00;;;;;;5051602;28;19919;-79
2024/03/27 05:55:18;;;;;;;;;;;5.40;1.00;;;;;;5055533;28;20026;-79
2024/03/27 05:58:00;;;;;;;;;;;5.50;1.00;;;;;;5047957;28;19909;-78
2024/03/27 06:00:36;;;;;;;;;;;5.70;1.00;;;;;;5039029;28;20558;-79
2024/03/27 06:03:18;;;;;;;;;;;5.90;1.00;;;;;;5064013;28;19909;-78
2024/03/27 06:05:48;;;;;;;;;;;6.00;1.00;;;;;;5075592;28;19959;-79
2024/03/27 06:08:18;;;;;;;;;;;6.10;1.00;;;;;;5057810;28;19915;-79
2024/03/27 06:11:12;;;;;;;;;;;6.20;1.00;;;;;;5046219;28;19963;-79
2024/03/27 06:13:49;;;;;;;;;;;6.50;1.00;;;;;;5053739;28;19971;-79
2024/03/27 06:16:31;;;;;;;;;;;6.60;1.00;;;;;;5038558;28;19940;-78
2024/03/27 06:25:12;;;;;;;;;;;7.20;1.00;;;;;;5060003;28;19966;-79
2024/03/27 06:27:48;;;;;;;;;;;7.40;1.00;;;;;;5068383;28;19913;-79
2024/03/27 06:30:48;;;;;;;;;;;7.60;1.00;;;;;;5055112;28;20004;-79
2024/03/27 06:33:18;;;;;;;;;;;7.80;1.00;;;;;;5055939;28;19916;-79
2024/03/27 06:36:18;;;;;;;;;;;8.00;1.00;;;;;;5056949;28;19920;-79
2024/03/27 06:38:50;;;;;;;;;;;8.20;1.00;;;;;;5043355;28;19908;-79
2024/03/27 06:41:18;;;;;;;;;;;8.40;1.00;;;;;;5070252;28;20310;-79
2024/03/27 06:43:48;;;;;;;;;;;8.50;1.00;;;;;;5062817;28;19909;-78
2024/03/27 06:46:24;;;;;;;;;;;8.70;1.00;;;;;;5046743;28;20068;-79
2024/03/27 06:48:56;;;;;;;;;;;8.90;1.00;;;;;;5038028;28;20031;-78
2024/03/27 06:51:22;;;;;;;;;;;9.10;1.00;;;;;;5050945;28;19916;-79
2024/03/27 06:53:48;;;;;;;;;;;9.40;1.00;;;;;;5053815;28;19913;-78
2024/03/27 06:56:14;;;;;;;;;;;9.60;1.00;;;;;;5054504;28;19908;-80
2024/03/27 06:58:42;;;;;;;;;;;9.90;1.00;;;;;;5060276;28;19913;-81
2024/03/27 07:01:18;;;;;;;;;;;9.90;1.00;;;;;;5057532;28;19908;-79
2024/03/27 07:03:48;;;;;;;;;;;10.10;1.00;;;;;;5057276;28;19913;-79
2024/03/27 07:06:18;;;;;;;;;;;10.30;1.00;;;;;;5057406;28;19947;-79
2024/03/27 07:08:48;;;;;;;;;;;10.40;1.00;;;;;;5057452;28;19908;-78
2024/03/27 07:11:18;;;;;;;;;;;10.70;1.00;;;;;;5070788;28;19916;-79
2024/03/27 07:13:44;;;;;;;;;;;10.80;1.00;;;;;;5052188;28;19912;-78
2024/03/27 07:16:25;;;;;;;;;;;11.00;1.00;;;;;;5057906;28;20046;-78
2024/03/27 07:22:18;;;;;;;;;;;11.30;1.00;;;;;;5053529;28;20340;-78
2024/03/27 07:25:12;;;;;;;;;;;11.60;1.00;;;;;;5056294;28;19951;-78
2024/03/27 07:27:48;;;;;;;;;;;11.70;1.00;;;;;;5058329;28;19909;-78
2024/03/27 07:30:18;;;;;;;;;;;11.80;1.00;;;;;;5064771;28;20043;-78
2024/03/27 07:32:44;;;;;;;;;;;11.90;1.00;;;;;;5068097;28;20353;-78
2024/03/27 07:38:30;;;;;;;;;;;12.20;1.00;;;;;;5051536;28;19932;-78
2024/03/27 07:41:24;;;;;;;;;;;12.20;1.00;;;;;;5053183;28;19917;-78
2024/03/27 07:53:18;;;;;;;;;;;12.70;1.00;;;;;;5052664;28;19920;-77
2024/03/27 07:56:12;;;;;;;;;;;12.80;1.00;;;;;;5056131;28;19909;-78
2024/03/27 08:01:40;;;;;;;;;;;13.00;1.00;;;;;;5059285;28;20387;-79
2024/03/27 08:04:06;;;;;;;;;;;13.20;1.00;;;;;;5039593;28;19913;-78
2024/03/27 08:07:00;;;;;;;;;;;13.30;1.00;;;;;;5052698;28;19943;-78
2024/03/27 08:09:30;;;;;;;;;;;13.50;1.00;;;;;;5038566;28;19932;-79
2024/03/27 08:12:18;;;;;;;;;;;13.50;1.00;;;;;;5052680;28;20023;-79
2024/03/27 08:14:54;;;;;;;;;;;13.70;1.00;;;;;;5059817;28;19917;-81
2024/03/27 08:17:20;;;;;;;;;;;13.80;1.00;;;;;;5053439;28;19917;-80
2024/03/27 08:20:00;;;;;;;;;;;13.80;1.00;;;;;;5030525;28;19986;-83
2024/03/27 08:22:48;;;;;;;;;;;13.90;1.00;;;;;;5053952;28;19913;-82
2024/03/27 08:25:18;;;;;;;;;;;14.00;1.00;;;;;;5030087;28;19909;-76
2024/03/27 08:31:00;;;;;;;;;;;14.00;1.00;;;;;;5051045;28;19920;-78
2024/03/27 08:39:32;;;;;;;;;;;14.20;1.00;;;;;;5055629;28;19920;-78
2024/03/27 08:42:12;;;;;;;;;;;14.20;1.00;;;;;;5055523;28;19987;-78
2024/03/27 08:45:06;;;;;;;;;;;14.10;1.00;;;;;;5056235;28;19913;-79
2024/03/27 08:53:54;;;;;;;;;;;14.10;1.00;;;;;;5045678;28;19966;-80
2024/03/27 08:56:20;;;;;;;;;;;14.10;1.00;;;;;;5027511;28;19913;-76
2024/03/27 08:59:00;;;;;;;;;;;14.10;1.00;;;;;;5037591;28;19918;-80
2024/03/27 09:01:54;;;;;;;;;;;14.10;1.00;;;;;;5048580;28;19928;-81
2024/03/27 09:04:48;;;;;;;;;;;14.20;1.00;;;;;;5056051;28;19962;-82
2024/03/27 09:07:18;;;;;;;;;;;14.30;1.00;;;;;;5067718;28;19913;-81
2024/03/27 09:09:49;;;;;;;;;;;14.30;1.00;;;;;;5069042;28;20007;-81
2024/03/27 09:12:18;;;;;;;;;;;14.30;1.00;;;;;;5010819;28;20007;-82
2024/03/27 09:18:12;;;;;;;;;;;14.50;1.00;;;;;;5049465;28;19920;-82
2024/03/27 09:20:38;;;;;;;;;;;14.80;1.00;;;;;;5052076;28;19908;-81
2024/03/27 09:23:12;;;;;;;;;;;14.80;1.00;;;;;;5054831;28;19908;-81
2024/03/27 09:26:12;;;;;;;;;;;14.70;1.00;;;;;;5064243;28;20047;-82
2024/03/27 09:29:12;;;;;;;;;;;14.70;1.00;;;;;;5059479;28;19913;-81
2024/03/27 09:31:42;;;;;;;;;;;14.70;1.00;;;;;;5017934;28;19992;-81
2024/03/27 09:34:12;;;;;;;;;;;14.90;1.00;;;;;;5030734;28;20028;-82
2024/03/27 09:36:38;;;;;;;;;;;14.90;1.00;;;;;;5042676;28;20384;-81
2024/03/27 09:39:36;;;;;;;;;;;14.90;1.00;;;;;;5053918;28;19992;-81
2024/03/27 09:42:12;;;;;;;;;;;15.10;1.00;;;;;;5051474;28;20029;-81
2024/03/27 09:44:43;;;;;;;;;;;15.40;1.00;;;;;;5058787;28;19909;-78
2024/03/27 09:47:14;;;;;;;;;;;15.40;1.00;;;;;;5055691;28;19908;-78
2024/03/27 09:49:42;;;;;;;;;;;15.50;1.00;;;;;;5057328;28;19921;-78
2024/03/27 09:52:13;;;;;;;;;;;15.60;1.00;;;;;;5053278;28;19908;-79
2024/03/27 09:54:43;;;;;;;;;;;15.70;1.00;;;;;;5058565;28;20285;-79
2024/03/27 09:57:10;;;;;;;;;;;15.70;1.00;;;;;;5065648;28;19956;-78
2024/03/27 09:59:36;;;;;;;;;;;15.80;1.00;;;;;;5059803;28;19924;-80
2024/03/27 10:02:04;;;;;;;;;;;15.80;1.00;;;;;;5067585;28;19913;-78
2024/03/27 10:04:37;;;;;;;;;;;15.70;1.00;;;;;;5055330;28;19944;-79
2024/03/27 10:07:22;;;;;;;;;;;15.90;1.00;;;;;;5055173;28;19913;-78
2024/03/27 10:09:54;;;;;;;;;;;15.90;1.00;;;;;;5059251;28;19916;-79
2024/03/27 10:12:36;;;;;;;;;;;16.00;1.00;;;;;;5061088;28;19915;-79
2024/03/27 10:15:13;;;;;;;;;;;16.30;1.00;;;;;;5045980;28;19921;-83
2024/03/27 10:18:12;;;;;;;;;;;16.30;1.00;;;;;;5074770;28;19935;-79
2024/03/27 10:20:38;;;;;;;;;;;16.30;1.00;;;;;;5058674;28;19963;-79
2024/03/27 10:23:12;;;;;;;;;;;15.90;1.00;;;;;;5060857;28;19916;-79
2024/03/27 10:25:43;;;;;;;;;;;15.90;1.00;;;;;;5055829;28;19915;-79
2024/03/27 10:28:13;;;;;;;;;;;15.90;1.00;;;;;;5061283;28;19956;-79
2024/03/27 10:30:43;;;;;;;;;;;16.10;1.00;;;;;;5044657;28;20017;-83
2024/03/27 10:33:12;;;;;;;;;;;16.10;1.00;;;;;;5041083;28;19923;-83
2024/03/27 10:35:43;;;;;;;;;;;16.40;1.00;;;;;;5071927;28;20387;-83
2024/03/27 10:38:13;;;;;;;;;;;16.60;1.00;;;;;;5059402;28;19915;-83
2024/03/27 10:40:43;;;;;;;;;;;16.50;1.00;;;;;;5063591;28;19909;-83
2024/03/27 10:46:14;;;;;;;;;;;16.40;1.00;;;;;;5060892;28;20438;-83
2024/03/27 10:48:40;;;;;;;;;;;16.80;1.00;;;;;;5057185;28;19909;-83
2024/03/27 10:51:13;;;;;;;;;;;17.00;1.00;;;;;;5053957;28;19919;-83
2024/03/27 10:53:44;;;;;;;;;;;17.10;1.00;;;;;;5052747;28;19917;-83
2024/03/27 10:56:15;;;;;;;;;;;17.40;1.00;;;;;;5059365;28;19914;-83
2024/03/27 10:58:43;;;;;;;;;;;17.40;1.00;;;;;;5039899;28;19913;-83
2024/03/27 11:01:13;;;;;;;;;;;17.30;1.00;;;;;;5056598;28;19912;-79
2024/03/27 11:03:39;;;;;;;;;;;17.20;1.00;;;;;;5058388;28;19920;-72
2024/03/27 11:06:05;;;;;;;;;;;17.40;1.00;;;;;;5043064;28;20413;-73
2024/03/27 11:08:43;;;;;;;;;;;17.30;1.00;;;;;;5047238;28;19920;-77
2024/03/27 11:11:14;;;;;;;;;;;16.60;1.00;;;;;;5054140;28;20352;-72
2024/03/27 11:13:50;;;;;;;;;;;16.50;1.00;;;;;;5053046;28;19913;-72
2024/03/27 11:16:20;;;;;;;;;;;16.40;1.00;;;;;;5055363;28;19916;-73
2024/03/27 11:18:46;;;;;;;;;;;16.30;1.00;;;;;;5055429;28;19936;-73
2024/03/27 11:21:27;;;;;;;;;;;16.20;1.00;;;;;;5064846;28;19909;-72
2024/03/27 11:24:00;;;;;;;;;;;16.00;1.00;;;;;;5053195;28;19959;-72
2024/03/27 11:26:32;;;;;;;;;;;15.60;1.00;;;;;;5056920;28;19921;-71
2024/03/27 11:28:58;;;;;;;;;;;15.70;1.00;;;;;;5021678;28;20494;-77
2024/03/27 11:31:24;;;;;;;;;;;15.70;1.00;;;;;;5047750;28;19912;-77
2024/03/27 11:34:07;;;;;;;;;;;15.60;1.00;;;;;;5054067;28;19917;-76
2024/03/27 11:36:32;;;;;;;;;;;15.60;1.00;;;;;;5038821;28;20284;-78
2024/03/27 11:39:00;;;;;;;;;;;15.70;1.00;;;;;;5049207;28;19940;-80
2024/03/27 11:41:42;;;;;;;;;;;15.90;1.00;;;;;;5042152;28;19937;-79
2024/03/27 11:44:13;;;;;;;;;;;16.10;1.00;;;;;;5048424;28;19909;-79
2024/03/27 11:46:43;;;;;;;;;;;16.20;1.00;;;;;;5034754;28;19913;-78
2024/03/27 11:49:13;;;;;;;;;;;16.50;1.00;;;;;;5057253;28;19908;-78
2024/03/27 11:51:39;;;;;;;;;;;16.80;1.00;;;;;;5071270;28;19963;-78
2024/03/27 11:54:14;;;;;;;;;;;17.00;1.00;;;;;;5048866;28;19913;-79
2024/03/27 11:56:40;;;;;;;;;;;17.10;1.00;;;;;;5036213;28;20015;-78
2024/03/27 11:59:06;;;;;;;;;;;;;;;;;;5053674;28;20272;-79
2024/03/27 12:01:38;;;;;;;;;;;17.00;1.00;;;;;;5051433;28;20428;-79
2024/03/27 12:13:20;;;;;;;;;;;17.00;1.00;;;;;;5051694;28;19920;-78
2024/03/27 12:15:50;;;;;;;;;;;17.10;1.00;;;;;;5056072;28;19916;-80
2024/03/27 12:18:18;;;;;;;;;;;17.00;1.00;;;;;;5060965;28;19925;-80
2024/03/27 12:20:54;;;;;;;;;;;16.90;1.00;;;;;;5057662;28;19912;-80
2024/03/27 12:23:24;;;;;;;;;;;16.70;1.00;;;;;;5060850;28;19988;-82
2024/03/27 12:26:00;;;;;;;;;;;16.60;1.00;;;;;;5057310;28;19947;-79
2024/03/27 12:31:55;;;;;;;;;;;16.80;1.00;;;;;;5055253;28;19958;-76
2024/03/27 12:40:24;;;;;;;;;;;16.50;1.00;;;;;;5042422;28;20264;-78
2024/03/27 12:43:08;;;;;;;;;;;16.60;1.00;;;;;;5052933;28;19916;-78
2024/03/27 12:45:48;;;;;;;;;;;16.60;1.00;;;;;;5060422;28;19944;-79
2024/03/27 12:51:18;;;;;;;;;;;17.20;1.00;;;;;;5049786;28;19919;-80
2024/03/27 12:54:13;;;;;;;;;;;17.40;1.00;;;;;;5054482;28;19920;-78
2024/03/27 12:57:12;;;;;;;;;;;17.50;1.00;;;;;;5046352;28;19917;-78
2024/03/27 13:00:00;;;;;;;;;;;17.80;1.00;;;;;;5045944;28;20008;-78
2024/03/27 13:02:37;;;;;;;;;;;17.50;1.00;;;;;;5056749;28;19913;-79
2024/03/27 13:05:02;;;;;;;;;;;17.30;1.00;;;;;;5059687;28;19909;-77
2024/03/27 13:07:48;;;;;;;;;;;17.40;1.00;;;;;;5062452;28;19909;-77
2024/03/27 13:10:48;;;;;;;;;;;17.60;1.00;;;;;;5059427;28;19920;-78
2024/03/27 13:13:16;;;;;;;;;;;17.70;1.00;;;;;;5056278;28;19912;-77
2024/03/27 13:15:43;;;;;;;;;;;17.70;1.00;;;;;;5061516;28;19917;-77
2024/03/27 13:18:13;;;;;;;;;;;17.30;1.00;;;;;;5058512;28;19955;-78
2024/03/27 13:20:48;;;;;;;;;;;16.90;1.00;;;;;;5053034;28;19940;-78
2024/03/27 13:23:24;;;;;;;;;;;16.80;1.00;;;;;;5069839;28;19913;-79
2024/03/27 13:25:50;;;;;;;;;;;16.60;1.00;;;;;;5046172;28;19922;-78
2024/03/27 13:28:16;;;;;;;;;;;16.70;1.00;;;;;;5050945;28;19912;-78
2024/03/27 13:31:12;;;;;;;;;;;16.80;1.00;;;;;;5072245;28;19999;-77
2024/03/27 13:33:38;;;;;;;;;;;16.70;1.00;;;;;;5066685;28;19918;-77
2024/03/27 13:36:04;;;;;;;;;;;16.50;1.00;;;;;;5065088;28;19923;-75
2024/03/27 13:47:38;;;;;;;;;;;16.60;1.00;;;;;;5058565;28;19959;-78
2024/03/27 13:50:19;;;;;;;;;;;16.80;1.00;;;;;;5049713;28;19916;-78
2024/03/27 13:55:49;;;;;;;;;;;17.00;1.00;;;;;;5046330;28;19923;-78
2024/03/27 13:58:18;;;;;;;;;;;17.30;1.00;;;;;;5036135;28;19945;-78
2024/03/27 14:01:12;;;;;;;;;;;16.70;1.00;;;;;;5052772;28;19909;-78
2024/03/27 14:07:18;;;;;;;;;;;16.50;1.00;;;;;;5047443;28;19916;-78
2024/03/27 14:13:18;;;;;;;;;;;16.50;1.00;;;;;;5045400;28;19919;-78
2024/03/27 14:16:12;;;;;;;;;;;16.60;1.00;;;;;;5072008;28;19912;-78
2024/03/27 14:18:49;;;;;;;;;;;16.60;1.00;;;;;;5071542;28;19917;-80
2024/03/27 14:21:19;;;;;;;;;;;16.50;1.00;;;;;;5064830;28;20407;-78
2024/03/27 14:27:18;;;;;;;;;;;16.50;1.00;;;;;;5051800;28;19913;-79
2024/03/27 14:30:18;;;;;;;;;;;16.60;1.00;;;;;;5051812;28;19912;-79
2024/03/27 14:32:44;;;;;;;;;;;16.30;1.00;;;;;;5055045;28;19970;-77
2024/03/27 14:35:13;;;;;;;;;;;16.00;1.00;;;;;;5066782;28;19921;-77
2024/03/27 14:37:49;;;;;;;;;;;15.80;1.00;;;;;;5051508;28;19909;-77
2024/03/27 14:40:14;;;;;;;;;;;15.30;1.00;;;;;;5054795;28;20281;-77
2024/03/27 14:42:48;;;;;;;;;;;15.00;1.00;;;;;;5062848;28;19942;-77
2024/03/27 14:45:19;;;;;;;;;;;14.70;1.00;;;;;;5056698;28;19912;-77
2024/03/27 14:47:44;;;;;;;;;;;14.30;1.00;;;;;;5056328;28;19987;-77
2024/03/27 14:53:19;;;;;;;;;;;13.90;1.00;;;;;;5062350;28;19962;-77
2024/03/27 14:55:49;;;;;;;;;;;14.00;1.00;;;;;;5051571;28;19920;-74
2024/03/27 14:58:18;;;;;;;;;;;13.90;1.00;;;;;;5043891;28;20379;-76
2024/03/27 15:00:44;;;;;;;;;;;13.90;1.00;;;;;;5060025;28;19920;-75
2024/03/27 15:03:10;;;;;;;;;;;13.80;1.00;;;;;;5059249;28;19912;-75
2024/03/27 15:05:37;;;;;;;;;;;13.80;1.00;;;;;;5052586;28;19912;-75
2024/03/27 15:08:12;;;;;;;;;;;13.60;1.00;;;;;;5056206;28;19920;-75
2024/03/27 15:10:38;;;;;;;;;;;13.50;1.00;;;;;;5046487;28;19913;-75
2024/03/27 15:13:04;;;;;;;;;;;13.40;1.00;;;;;;5054318;28;19935;-76
2024/03/27 15:18:42;;;;;;;;;;;13.20;1.00;;;;;;5037480;28;19955;-78
2024/03/27 15:21:19;;;;;;;;;;;13.20;1.00;;;;;;5066425;28;19913;-81
2024/03/27 15:23:44;;;;;;;;;;;13.10;1.00;;;;;;5058857;28;20272;-79
2024/03/27 15:26:18;;;;;;;;;;;13.10;1.00;;;;;;5054836;28;20323;-79
2024/03/27 15:29:18;;;;;;;;;;;13.10;1.00;;;;;;5041346;28;19909;-80
2024/03/27 15:32:18;;;;;;;;;;;12.90;1.00;;;;;;5045218;28;19916;-77
2024/03/27 15:34:49;;;;;;;;;;;12.90;1.00;;;;;;5055324;28;19917;-77
2024/03/27 15:37:25;;;;;;;;;;;12.50;1.00;;;;;;5040879;28;19913;-76
2024/03/27 15:40:07;;;;;;;;;;;12.40;1.00;;;;;;5036315;28;20000;-77
2024/03/27 15:42:49;;;;;;;;;;;12.40;1.00;;;;;;5032900;28;20368;-79
2024/03/27 15:45:14;;;;;;;;;;;12.30;1.00;;;;;;5021677;28;19959;-73
2024/03/27 15:47:40;;;;;;;;;;;12.00;1.00;;;;;;5054748;28;20268;-76
2024/03/27 15:50:14;;;;;;;;;;;11.90;1.00;;;;;;5058131;28;19916;-76
2024/03/27 15:52:55;;;;;;;;;;;11.80;1.00;;;;;;5039426;28;19913;-77
2024/03/27 15:55:20;;;;;;;;;;;11.50;1.00;;;;;;5055757;28;19909;-77
2024/03/27 15:57:46;;;;;;;;;;;11.50;1.00;;;;;;5054597;28;20571;-76
2024/03/27 16:00:19;;;;;;;;;;;11.40;1.00;;;;;;5033357;28;20360;-78
2024/03/27 16:02:49;;;;;;;;;;;11.40;1.00;;;;;;5055671;28;19944;-78
2024/03/27 16:08:19;;;;;;;;;;;11.30;1.00;;;;;;5064465;28;20011;-79
2024/03/27 16:10:51;;;;;;;;;;;11.20;1.00;;;;;;5058256;28;19999;-79
2024/03/27 16:13:19;;;;;;;;;;;11.10;1.00;;;;;;5053299;28;19917;-79
2024/03/27 16:15:48;;;;;;;;;;;11.00;1.00;;;;;;5053481;28;20027;-80
2024/03/27 16:18:19;;;;;;;;;;;11.00;1.00;;;;;;5053881;28;19913;-76
2024/03/27 16:20:55;;;;;;;;;;;11.00;1.00;;;;;;5053660;28;19909;-76
2024/03/27 16:23:25;;;;;;;;;;;10.90;1.00;;;;;;5053483;28;19916;-75
2024/03/27 16:26:13;;;;;;;;;;;10.80;1.00;;;;;;5059647;28;19916;-78
2024/03/27 16:28:49;;;;;;;;;;;10.90;1.00;;;;;;5073258;28;19959;-76
2024/03/27 16:31:19;;;;;;;;;;;11.00;1.00;;;;;;5062598;28;19913;-77
2024/03/27 16:33:49;;;;;;;;;;;10.90;1.00;;;;;;5053089;28;19948;-78
2024/03/27 16:36:43;;;;;;;;;;;11.00;1.00;;;;;;5050096;28;19913;-78
2024/03/27 16:39:13;;;;;;;;;;;10.90;1.00;;;;;;5053314;28;19909;-77
2024/03/27 16:41:49;;;;;;;;;;;11.00;1.00;;;;;;5052902;28;20352;-77
2024/03/27 16:44:14;;;;;;;;;;;10.60;1.00;;;;;;5039583;28;19916;-77
2024/03/27 16:46:49;;;;;;;;;;;10.60;1.00;;;;;;5054315;28;19913;-77
2024/03/27 16:49:15;;;;;;;;;;;10.60;1.00;;;;;;5057154;28;19924;-78
2024/03/27 16:51:40;;;;;;;;;;;10.70;1.00;;;;;;5053997;28;20308;-78
2024/03/27 16:54:06;;;;;;;;;;;10.60;1.00;;;;;;5047340;28;19921;-76
2024/03/27 16:56:32;;;;;;;;;;;10.70;1.00;;;;;;5059376;28;20407;-77
2024/03/27 16:59:13;;;;;;;;;;;10.50;1.00;;;;;;5057114;28;19913;-76
2024/03/27 17:01:49;;;;;;;;;;;10.50;1.00;;;;;;5048230;28;19920;-76
2024/03/27 17:04:19;;;;;;;;;;;10.40;1.00;;;;;;5052638;28;20019;-76
2024/03/27 17:06:49;;;;;;;;;;;10.30;1.00;;;;;;5055516;28;19913;-77
2024/03/27 17:09:19;;;;;;;;;;;10.30;1.00;;;;;;5052851;28;19916;-77
2024/03/27 17:11:49;;;;;;;;;;;10.10;1.00;;;;;;5049891;28;19909;-77
2024/03/27 17:14:19;;;;;;;;;;;10.10;1.00;;;;;;5053117;28;19913;-78
2024/03/27 17:16:49;;;;;;;;;;;10.00;1.00;;;;;;5052478;28;19920;-77
2024/03/27 17:19:19;;;;;;;;;;;9.90;1.00;;;;;;5058230;28;20338;-78
2024/03/27 17:21:44;;;;;;;;;;;9.90;1.00;;;;;;5053131;28;19963;-74
2024/03/27 17:24:19;;;;;;;;;;;9.90;1.00;;;;;;5053018;28;20007;-80
2024/03/27 17:26:49;;;;;;;;;;;9.90;1.00;;;;;;5070677;28;19909;-80
2024/03/27 17:32:19;;;;;;;;;;;9.90;1.00;;;;;;5047612;28;20011;-79
2024/03/27 17:34:44;;;;;;;;;;;9.90;1.00;;;;;;5072786;28;19916;-79
2024/03/27 17:37:19;;;;;;;;;;;9.80;1.00;;;;;;5048710;28;20023;-79
2024/03/27 17:40:19;;;;;;;;;;;9.90;1.00;;;;;;5046983;28;19913;-76
2024/03/27 17:42:49;;;;;;;;;;;9.80;1.00;;;;;;5053381;28;19909;-76
2024/03/27 17:45:31;;;;;;;;;;;9.70;1.00;;;;;;5038430;28;20011;-77
2024/03/27 17:57:06;;;;;;;;;;;9.70;1.00;;;;;;5062341;28;19955;-77
2024/03/27 17:59:46;;;;;;;;;;;9.70;1.00;;;;;;5049418;28;20327;-77
2024/03/27 18:05:31;;;;;;;;;;;9.70;1.00;;;;;;5041660;28;19955;-90
2024/03/27 18:11:06;;;;;;;;;;;9.70;1.00;;;;;;5043510;28;19932;-87
2024/03/27 18:19:44;;;;;;;;;;;9.80;1.00;;;;;;5046152;28;19970;-81
2024/03/27 18:22:13;;;;;;;;;;;9.80;1.00;;;;;;5075638;28;19908;-82
2024/03/27 18:24:38;;;;;;;;;;;9.70;1.00;;;;;;5064949;28;20016;-75
2024/03/27 18:27:04;;;;;;;;;;;9.70;1.00;;;;;;5062023;28;19944;-75
2024/03/27 18:32:33;;;;;;;;;;;9.70;1.00;;;;;;5046837;28;19967;-75
2024/03/27 18:34:58;;;;;;;;;;;9.60;1.00;;;;;;5065869;28;19920;-75
2024/03/27 18:37:24;;;;;;;;;;;9.60;1.00;;;;;;5055212;28;20386;-76
2024/03/27 18:39:50;;;;;;;;;;;9.60;1.00;;;;;;5050553;28;19913;-77
2024/03/27 18:42:16;;;;;;;;;;;9.50;1.00;;;;;;5068872;28;20319;-76
2024/03/27 18:44:43;;;;;;;;;;;9.60;1.00;;;;;;5062456;28;19935;-78
2024/03/27 18:47:31;;;;;;;;;;;9.60;1.00;;;;;;5055041;28;19913;-81
2024/03/27 18:53:19;;;;;;;;;;;9.60;1.00;;;;;;5066182;28;19920;-81
2024/03/27 18:55:45;;;;;;;;;;;9.60;1.00;;;;;;5052308;28;20422;-80
2024/03/27 18:58:37;;;;;;;;;;;9.60;1.00;;;;;;5038367;28;19909;-80
2024/03/27 19:01:02;;;;;;;;;;;9.70;1.00;;;;;;5050971;28;19916;-79
2024/03/27 19:09:34;;;;;;;;;;;9.90;1.00;;;;;;5065827;28;20382;-76
2024/03/27 19:11:59;;;;;;;;;;;9.80;1.00;;;;;;5040933;28;20015;-76
2024/03/27 19:14:25;;;;;;;;;;;9.80;1.00;;;;;;5054382;28;19925;-75
2024/03/27 19:17:07;;;;;;;;;;;9.90;1.00;;;;;;5056955;28;19916;-78